createdAt,value
2022-11-03T00:02:14.927Z,7.05
2022-11-03T00:04:42.426Z,8.27
2022-11-03T00:07:10.230Z,5.28
2022-11-03T00:09:37.994Z,5.25
2022-11-03T00:12:05.660Z,5.55
2022-11-03T00:14:33.461Z,5.85
2022-11-03T00:17:01.889Z,5.82
2022-11-03T00:19:29.293Z,7.55
2022-11-03T00:21:59.482Z,8.27
2022-11-03T00:24:27.042Z,6.03
2022-11-03T00:26:54.822Z,3.42
2022-11-03T00:29:22.188Z,3.70
2022-11-03T00:31:49.961Z,4.95
2022-11-03T00:34:17.508Z,5.07
2022-11-03T00:36:45.722Z,5.35
2022-11-03T00:39:13.575Z,5.40
2022-11-03T00:41:41.756Z,6.25
2022-11-03T00:44:10.774Z,4.40
2022-11-03T00:46:38.716Z,5.60
2022-11-03T00:49:06.607Z,4.80
2022-11-03T00:51:37.267Z,7.13
2022-11-03T00:54:06.074Z,7.90
2022-11-03T00:56:36.049Z,12.88
2022-11-03T00:59:04.864Z,6.80
2022-11-03T01:01:37.146Z,6.45
2022-11-03T01:04:24.565Z,7.78
2022-11-03T01:06:54.716Z,5.68
2022-11-03T01:09:34.226Z,6.10
2022-11-03T01:12:17.187Z,6.93
2022-11-03T01:14:47.808Z,6.25
2022-11-03T01:17:16.924Z,8.57
2022-11-03T01:19:44.919Z,4.32
2022-11-03T01:22:13.970Z,6.03
2022-11-03T01:24:43.039Z,6.05
2022-11-03T01:27:14.951Z,5.10
2022-11-03T01:29:43.194Z,3.80
2022-11-03T01:32:11.082Z,7.43
2022-11-03T01:34:38.639Z,7.15
2022-11-03T01:37:06.603Z,5.57
2022-11-03T01:39:34.260Z,3.95
2022-11-03T01:42:02.257Z,4.47
2022-11-03T01:44:39.749Z,6.45
2022-11-03T01:47:25.055Z,5.93
2022-11-03T01:50:13.355Z,4.50
2022-11-03T01:52:47.545Z,6.63
2022-11-03T01:55:19.777Z,3.47
2022-11-03T01:58:09.346Z,6.13
2022-11-03T02:00:37.185Z,7.85
2022-11-03T02:03:05.966Z,6.60
2022-11-03T02:05:33.732Z,4.20
2022-11-03T02:10:41.706Z,5.47
2022-11-03T02:13:20.007Z,6.90
2022-11-03T02:15:55.506Z,8.20
2022-11-03T02:18:28.229Z,5.20
2022-11-03T02:21:23.755Z,4.03
2022-11-03T02:24:27.886Z,5.15
2022-11-03T02:26:57.052Z,6.47
2022-11-03T02:29:24.461Z,5.80
2022-11-03T02:32:04.573Z,7.18
2022-11-03T02:34:56.388Z,7.90
2022-11-03T02:37:30.088Z,5.05
2022-11-03T02:40:06.196Z,6.07
2022-11-03T02:42:35.617Z,5.82
2022-11-03T02:45:05.523Z,6.20
2022-11-03T02:47:35.135Z,6.28
2022-11-03T02:50:07.533Z,11.88
2022-11-03T02:52:42.418Z,8.20
2022-11-03T02:55:20.996Z,6.43
2022-11-03T02:58:00.347Z,6.88
2022-11-03T03:00:31.324Z,6.88
2022-11-03T03:03:14.164Z,6.57
2022-11-03T03:05:45.610Z,10.38
2022-11-03T03:08:14.891Z,6.60
2022-11-03T03:10:46.692Z,6.05
2022-11-03T03:13:17.789Z,5.03
2022-11-03T03:16:07.088Z,6.32
2022-11-03T03:18:51.535Z,5.78
2022-11-03T03:21:26.207Z,10.68
2022-11-03T03:24:07.275Z,8.40
2022-11-03T03:26:43.127Z,8.23
2022-11-03T03:29:26.669Z,6.20
2022-11-03T03:32:03.841Z,8.10
2022-11-03T03:34:36.115Z,9.30
2022-11-03T03:37:05.775Z,6.07
2022-11-03T03:39:36.327Z,8.85
2022-11-03T03:42:04.678Z,8.02
2022-11-03T03:44:34.461Z,8.50
2022-11-03T03:47:07.322Z,9.15
2022-11-03T03:49:34.815Z,5.47
2022-11-03T03:52:04.240Z,7.43
2022-11-03T03:54:31.800Z,8.80
2022-11-03T03:57:04.851Z,7.25
2022-11-03T03:59:32.390Z,7.03
2022-11-03T04:02:00.158Z,6.88
2022-11-03T04:04:27.829Z,12.80
2022-11-03T04:07:15.255Z,8.27
2022-11-03T04:09:42.806Z,10.15
2022-11-03T04:12:29.041Z,11.32
2022-11-03T04:15:15.271Z,8.35
2022-11-03T04:18:04.942Z,8.77
2022-11-03T04:20:52.555Z,10.35
2022-11-03T04:23:20.359Z,14.48
2022-11-03T04:25:53.489Z,10.25
2022-11-03T04:28:21.740Z,14.93
2022-11-03T04:30:50.476Z,8.82
2022-11-03T04:33:22.313Z,11.07
2022-11-03T04:35:50.124Z,11.40
2022-11-03T04:38:17.512Z,8.55
2022-11-03T04:40:49.181Z,9.07
2022-11-03T04:43:21.812Z,11.15
2022-11-03T04:45:50.163Z,9.90
2022-11-03T04:48:25.167Z,10.75
2022-11-03T04:50:58.596Z,14.27
2022-11-03T04:53:30.667Z,15.75
2022-11-03T04:56:00.460Z,11.93
2022-11-03T04:58:36.808Z,8.77
2022-11-03T05:01:07.027Z,15.35
2022-11-03T05:03:36.273Z,9.05
2022-11-03T05:06:19.486Z,11.90
2022-11-03T05:08:51.006Z,9.55
2022-11-03T05:11:35.145Z,9.20
2022-11-03T05:14:24.115Z,8.85
2022-11-03T05:16:56.080Z,8.70
2022-11-03T05:19:36.201Z,9.55
2022-11-03T05:22:05.086Z,9.35
2022-11-03T05:24:33.690Z,11.65
2022-11-03T05:27:01.203Z,17.00
2022-11-03T05:29:35.833Z,12.10
2022-11-03T05:32:03.723Z,15.93
2022-11-03T05:34:31.336Z,11.77
2022-11-03T05:37:25.846Z,14.63
2022-11-03T05:39:57.910Z,19.58
2022-11-03T05:42:38.016Z,16.08
2022-11-03T05:45:33.106Z,14.20
2022-11-03T05:48:02.517Z,15.40
2022-11-03T05:50:34.079Z,15.02
2022-11-03T05:53:26.770Z,17.48
2022-11-03T05:55:58.393Z,18.75
2022-11-03T05:58:40.987Z,14.73
2022-11-03T06:01:19.506Z,15.18
2022-11-03T06:03:48.152Z,13.70
2022-11-03T06:06:33.705Z,13.27
2022-11-03T06:09:14.688Z,16.42
2022-11-03T06:11:44.307Z,14.73
2022-11-03T06:14:29.072Z,14.45
2022-11-03T06:17:01.136Z,15.32
2022-11-03T06:19:59.618Z,13.55
2022-11-03T06:22:31.668Z,13.80
2022-11-03T06:25:11.848Z,15.75
2022-11-03T06:27:42.007Z,10.00
2022-11-03T06:30:29.574Z,14.55
2022-11-03T06:33:03.202Z,11.15
2022-11-03T06:35:34.041Z,9.55
2022-11-03T06:40:58.008Z,15.48
2022-11-03T06:46:40.586Z,14.52
2022-11-03T06:49:35.226Z,12.65
2022-11-03T06:52:52.030Z,11.40
2022-11-03T06:56:04.766Z,13.60
2022-11-03T06:59:04.270Z,7.65
2022-11-03T07:01:50.367Z,10.93
2022-11-03T07:07:17.451Z,10.55
2022-11-03T07:09:55.517Z,11.23
2022-11-03T07:12:29.544Z,8.63
2022-11-03T07:23:36.693Z,10.38
2022-11-03T07:26:06.670Z,8.18
2022-11-03T07:29:08.789Z,6.72
2022-11-03T07:31:43.404Z,6.55
2022-11-03T07:40:22.695Z,8.18
2022-11-03T07:43:18.296Z,13.85
2022-11-03T07:55:33.095Z,6.95
2022-11-03T07:58:22.198Z,5.30
2022-11-03T08:07:18.381Z,8.55
2022-11-03T08:09:52.960Z,6.47
2022-11-03T08:12:27.785Z,8.35
2022-11-03T08:14:58.939Z,6.68
2022-11-03T08:17:46.022Z,12.27
2022-11-03T08:20:22.973Z,8.75
2022-11-03T08:23:24.224Z,7.95
2022-11-03T08:29:06.007Z,9.50
2022-11-03T08:34:59.108Z,10.90
2022-11-03T08:40:18.749Z,7.72
2022-11-03T08:43:09.899Z,8.63
2022-11-03T08:45:46.055Z,10.60
2022-11-03T08:51:46.003Z,8.18
2022-11-03T08:54:36.998Z,9.18
2022-11-03T08:57:21.995Z,8.60
2022-11-03T09:05:54.300Z,9.05
2022-11-03T09:11:36.439Z,10.57
2022-11-03T09:14:47.933Z,8.52
2022-11-03T09:17:53.078Z,13.77
2022-11-03T09:23:19.304Z,8.50
2022-11-03T09:25:50.962Z,11.57
2022-11-03T09:31:05.434Z,8.75
2022-11-03T09:47:33.777Z,9.68
2022-11-03T10:03:32.936Z,8.52
2022-11-03T10:06:10.994Z,9.88
2022-11-03T10:08:45.696Z,10.38
2022-11-03T10:11:21.594Z,11.05
2022-11-03T10:13:58.380Z,12.93
2022-11-03T10:19:03.155Z,10.98
2022-11-03T10:21:39.671Z,11.52
2022-11-03T10:24:19.706Z,12.10
2022-11-03T10:26:51.498Z,13.73
2022-11-03T10:29:37.379Z,12.95
2022-11-03T10:32:36.485Z,14.43
2022-11-03T10:38:38.885Z,14.07
2022-11-03T10:41:31.617Z,11.73
2022-11-03T10:45:05.240Z,9.38
2022-11-03T10:59:52.834Z,11.40
2022-11-03T11:02:25.531Z,13.63
2022-11-03T11:08:59.615Z,10.10
2022-11-03T11:11:52.418Z,11.50
2022-11-03T11:20:37.759Z,10.90
2022-11-03T11:23:53.025Z,10.52
2022-11-03T11:26:37.962Z,10.30
2022-11-03T11:37:39.329Z,11.23
2022-11-03T11:55:02.667Z,11.65
2022-11-03T12:01:03.390Z,10.23
2022-11-03T12:04:02.130Z,10.93
2022-11-03T12:13:03.168Z,12.95
2022-11-03T12:24:42.693Z,11.82
2022-11-03T12:27:36.100Z,9.80
2022-11-03T12:30:52.119Z,9.82
2022-11-03T12:33:20.663Z,8.07
2022-11-03T12:35:48.836Z,10.75
2022-11-03T12:38:17.150Z,11.32
2022-11-03T12:40:44.848Z,7.80
2022-11-03T12:43:13.535Z,8.85
2022-11-03T12:45:45.010Z,12.00
2022-11-03T12:48:16.289Z,12.63
2022-11-03T12:50:49.403Z,10.75
2022-11-03T12:53:18.473Z,11.98
2022-11-03T12:55:46.787Z,11.00
2022-11-03T12:58:15.065Z,8.57
2022-11-03T13:00:49.847Z,10.43
2022-11-03T13:03:22.745Z,13.35
2022-11-03T13:05:50.740Z,9.50
2022-11-03T13:08:23.327Z,12.52
2022-11-03T13:10:53.058Z,10.98
2022-11-03T13:13:22.403Z,11.45
2022-11-03T13:15:54.157Z,11.82
2022-11-03T13:18:24.269Z,11.18
2022-11-03T13:21:00.901Z,11.90
2022-11-03T13:23:37.959Z,12.70
2022-11-03T13:29:04.449Z,12.15
2022-11-03T13:31:35.913Z,15.15
2022-11-03T13:34:04.918Z,13.35
2022-11-03T13:36:35.067Z,17.38
2022-11-03T13:39:03.162Z,16.05
2022-11-03T13:41:31.851Z,13.57
2022-11-03T13:44:00.124Z,11.98
2022-11-03T13:46:28.016Z,10.90
2022-11-03T13:51:44.230Z,12.80
2022-11-03T13:59:47.973Z,14.50
2022-11-03T14:05:06.988Z,14.93
2022-11-03T14:07:37.033Z,19.15
2022-11-03T14:10:04.816Z,22.00
2022-11-03T14:12:32.695Z,16.63
2022-11-03T14:15:06.544Z,14.73
2022-11-03T14:17:34.231Z,15.27
2022-11-03T14:20:04.471Z,19.70
2022-11-03T14:22:32.848Z,15.73
2022-11-03T14:25:01.180Z,15.15
2022-11-03T14:27:28.625Z,15.90
2022-11-03T14:29:57.201Z,14.00
2022-11-03T14:32:24.759Z,12.88
2022-11-03T14:34:52.398Z,17.92
2022-11-03T14:37:19.920Z,16.83
2022-11-03T14:39:47.435Z,14.48
2022-11-03T14:42:18.037Z,16.25
2022-11-03T14:44:46.591Z,15.32
2022-11-03T14:47:18.809Z,14.40
2022-11-03T14:49:46.924Z,14.20
2022-11-03T14:52:15.891Z,16.05
2022-11-03T14:54:43.965Z,16.75
2022-11-03T14:57:11.594Z,14.60
2022-11-03T14:59:40.758Z,12.90
2022-11-03T15:02:08.347Z,12.82
2022-11-03T15:04:35.985Z,18.27
2022-11-03T15:07:03.515Z,12.95
2022-11-03T15:09:30.845Z,15.30
2022-11-03T15:11:58.588Z,17.10
2022-11-03T15:14:26.003Z,17.38
2022-11-03T15:16:53.499Z,16.17
2022-11-03T15:19:21.191Z,14.38
2022-11-03T15:21:48.683Z,14.95
2022-11-03T15:27:03.590Z,17.08
2022-11-03T15:29:31.129Z,15.13
2022-11-03T15:31:58.832Z,17.58
2022-11-03T15:34:26.175Z,18.38
2022-11-03T15:36:53.968Z,16.63
2022-11-03T15:39:21.409Z,18.52
2022-11-03T15:41:48.859Z,15.43
2022-11-03T15:44:16.314Z,17.83
2022-11-03T15:46:43.676Z,15.93
2022-11-03T15:49:11.510Z,15.30
2022-11-03T15:51:38.998Z,18.13
2022-11-03T15:54:06.460Z,15.02
2022-11-03T15:56:33.979Z,18.38
2022-11-03T15:59:01.472Z,16.15
2022-11-03T16:01:29.717Z,15.13
2022-11-03T16:03:57.298Z,18.80
2022-11-03T16:06:46.650Z,17.30
2022-11-03T16:09:12.381Z,16.20
2022-11-03T16:11:39.925Z,20.20
2022-11-03T16:14:07.555Z,18.42
2022-11-03T16:16:35.645Z,16.60
2022-11-03T16:19:03.064Z,16.88
2022-11-03T16:21:30.692Z,15.25
2022-11-03T16:23:58.146Z,17.00
2022-11-03T16:26:25.593Z,20.42
2022-11-03T16:28:53.144Z,18.42
2022-11-03T16:31:21.003Z,14.32
2022-11-03T16:33:48.834Z,20.58
2022-11-03T16:36:16.785Z,19.92
2022-11-03T16:38:44.400Z,21.55
2022-11-03T16:41:12.348Z,18.42
2022-11-03T16:43:39.903Z,18.73
2022-11-03T16:46:07.409Z,19.02
2022-11-03T16:48:35.056Z,18.38
2022-11-03T16:51:02.633Z,15.75
2022-11-03T16:53:30.079Z,18.30
2022-11-03T16:55:57.477Z,14.63
2022-11-03T16:58:24.969Z,14.73
2022-11-03T17:00:52.670Z,14.18
2022-11-03T17:03:20.512Z,16.13
2022-11-03T17:05:47.986Z,15.60
2022-11-03T17:08:46.351Z,13.65
2022-11-03T17:11:03.113Z,15.45
2022-11-03T17:13:30.715Z,15.73
2022-11-03T17:15:58.512Z,16.67
2022-11-03T17:18:25.923Z,14.95
2022-11-03T17:20:53.341Z,12.95
2022-11-03T17:23:20.738Z,12.32
2022-11-03T17:25:48.480Z,16.92
2022-11-03T17:28:19.057Z,14.27
2022-11-03T17:30:46.751Z,15.63
2022-11-03T17:33:19.737Z,11.15
2022-11-03T17:35:47.383Z,13.32
2022-11-03T17:38:18.982Z,12.02
2022-11-03T17:40:48.176Z,9.93
2022-11-03T17:43:22.907Z,8.55
2022-11-03T17:45:51.385Z,8.35
2022-11-03T17:48:19.149Z,9.38
2022-11-03T17:50:49.389Z,9.00
2022-11-03T17:53:26.662Z,7.93
2022-11-03T17:56:27.950Z,10.55
2022-11-03T17:58:46.616Z,6.32
2022-11-03T18:01:26.036Z,7.30
2022-11-03T18:03:54.186Z,8.40
2022-11-03T18:06:22.265Z,7.25
2022-11-03T18:08:50.386Z,5.50
2022-11-03T18:11:45.051Z,6.65
2022-11-03T18:14:13.235Z,5.57
2022-11-03T18:16:41.457Z,6.93
2022-11-03T18:19:14.050Z,6.60
2022-11-03T18:21:42.072Z,4.03
2022-11-03T18:24:15.978Z,3.85
2022-11-03T18:26:43.693Z,5.93
2022-11-03T18:29:11.907Z,6.30
2022-11-03T18:31:47.496Z,4.88
2022-11-03T18:34:18.393Z,8.10
2022-11-03T18:36:45.925Z,5.50
2022-11-03T18:39:21.744Z,5.72
2022-11-03T18:41:49.081Z,3.80
2022-11-03T18:44:19.084Z,5.10
2022-11-03T18:46:47.883Z,4.22
2022-11-03T18:49:16.195Z,2.70
2022-11-03T18:51:59.154Z,5.05
2022-11-03T18:54:30.454Z,2.75
2022-11-03T18:56:58.516Z,2.60
2022-11-03T18:59:29.912Z,3.30
2022-11-03T19:01:57.781Z,6.00
2022-11-03T19:04:25.466Z,2.03
2022-11-03T19:06:53.352Z,1.95
2022-11-03T19:09:24.966Z,2.55
2022-11-03T19:11:55.864Z,3.92
2022-11-03T19:14:25.334Z,3.95
2022-11-03T19:17:24.431Z,1.70
2022-11-03T19:19:42.142Z,3.45
2022-11-03T19:22:18.738Z,2.70
2022-11-03T19:24:46.565Z,2.33
2022-11-03T19:27:26.881Z,4.43
2022-11-03T19:29:56.109Z,2.08
2022-11-03T19:32:31.493Z,2.55
2022-11-03T19:35:14.760Z,3.95
2022-11-03T19:37:42.232Z,2.10
2022-11-03T19:40:15.303Z,3.85
2022-11-03T19:42:42.941Z,3.80
2022-11-03T19:45:16.633Z,4.05
2022-11-03T19:50:53.561Z,1.92
2022-11-03T19:53:26.338Z,2.08
2022-11-03T19:55:55.203Z,2.40
2022-11-03T19:58:28.275Z,3.05
2022-11-03T20:00:56.328Z,3.13
2022-11-03T20:03:25.253Z,2.28
2022-11-03T20:05:55.500Z,2.25
2022-11-03T20:08:32.502Z,1.80
2022-11-03T20:11:00.807Z,1.92
2022-11-03T20:13:35.180Z,3.30
2022-11-03T20:16:03.871Z,4.03
2022-11-03T20:18:31.534Z,2.38
2022-11-03T20:20:59.531Z,3.42
2022-11-03T20:23:30.149Z,2.35
2022-11-03T20:25:58.009Z,3.80
2022-11-03T20:28:31.248Z,3.55
2022-11-03T20:31:01.392Z,2.60
2022-11-03T20:33:30.462Z,2.53
2022-11-03T20:35:58.443Z,4.32
2022-11-03T20:38:29.600Z,3.63
2022-11-03T20:41:01.820Z,3.05
2022-11-03T20:43:37.853Z,4.05
2022-11-03T20:46:24.178Z,2.83
2022-11-03T20:48:52.310Z,4.18
2022-11-03T20:51:22.827Z,2.85
2022-11-03T20:53:51.158Z,4.28
2022-11-03T20:56:21.884Z,2.22
2022-11-03T20:58:49.915Z,3.78
2022-11-03T21:01:22.854Z,3.75
2022-11-03T21:04:00.050Z,5.15
2022-11-03T21:06:30.425Z,2.80
2022-11-03T21:08:59.268Z,3.60
2022-11-03T21:11:29.910Z,3.97
2022-11-03T21:14:02.924Z,4.32
2022-11-03T21:16:49.696Z,5.45
2022-11-03T21:19:43.017Z,4.30
2022-11-03T21:25:04.023Z,6.20
2022-11-03T21:27:31.533Z,5.15
2022-11-03T21:29:59.992Z,4.75
2022-11-03T21:32:27.745Z,6.55
2022-11-03T21:34:55.295Z,6.72
2022-11-03T21:37:22.817Z,5.43
2022-11-03T21:39:51.430Z,5.68
2022-11-03T21:42:37.384Z,7.82
2022-11-03T21:45:05.567Z,7.72
2022-11-03T21:47:33.010Z,7.28
2022-11-03T21:52:33.219Z,6.80
2022-11-03T21:55:05.239Z,7.57
2022-11-03T21:57:33.043Z,8.45
2022-11-03T22:00:00.592Z,7.65
2022-11-03T22:02:30.300Z,10.40
2022-11-03T22:04:58.301Z,7.57
2022-11-03T22:07:26.007Z,6.47
2022-11-03T22:09:53.422Z,8.43
2022-11-03T22:12:20.942Z,7.93
2022-11-03T22:15:17.900Z,5.40
2022-11-03T22:17:45.531Z,8.23
2022-11-03T22:20:31.874Z,7.93
2022-11-03T22:23:20.866Z,8.35
2022-11-03T22:26:07.319Z,8.07
2022-11-03T22:28:34.700Z,8.07
2022-11-03T22:31:23.464Z,7.68
2022-11-03T22:34:09.787Z,7.43
2022-11-03T22:36:37.360Z,6.80
2022-11-03T22:39:23.844Z,6.20
2022-11-03T22:42:10.136Z,5.05
2022-11-03T22:44:56.333Z,5.85
2022-11-03T22:47:23.934Z,7.93
2022-11-03T22:49:51.375Z,7.30
2022-11-03T22:52:18.796Z,6.65
2022-11-03T22:54:46.321Z,6.22
2022-11-03T22:57:14.208Z,6.60
2022-11-03T22:59:41.616Z,8.23
2022-11-03T23:02:09.326Z,9.25
2022-11-03T23:04:37.005Z,7.28
2022-11-03T23:07:05.272Z,6.80
2022-11-03T23:09:33.090Z,6.78
2022-11-03T23:12:00.523Z,10.07
2022-11-03T23:14:47.824Z,7.03
2022-11-03T23:17:15.321Z,8.35
2022-11-03T23:20:01.422Z,7.68
2022-11-03T23:22:28.859Z,7.50
2022-11-03T23:25:02.364Z,8.70
2022-11-03T23:27:29.778Z,7.28
2022-11-03T23:29:57.339Z,6.95
2022-11-03T23:32:25.156Z,7.03
2022-11-03T23:34:52.720Z,7.18
2022-11-03T23:37:20.224Z,9.85
2022-11-03T23:39:47.667Z,10.43
2022-11-03T23:42:15.229Z,9.38
2022-11-03T23:45:01.361Z,8.63
2022-11-03T23:47:49.321Z,6.97
2022-11-03T23:50:17.105Z,9.90
2022-11-03T23:52:44.517Z,7.28
2022-11-03T23:55:12.069Z,7.82
2022-11-03T23:57:58.145Z,8.45
